sensor_id;sensor_type;location;lat;lon;timestamp;P1;durP1;ratioP1;P2;durP2;ratioP2
23567;SDS011;11962;50.838;4.430;2023-03-03T00:00:38;31.80;;;18.35;;
23567;SDS011;11962;50.838;4.430;2023-03-03T00:03:05;33.63;;;18.50;;
23567;SDS011;11962;50.838;4.430;2023-03-03T00:05:32;34.08;;;19.02;;
23567;SDS011;11962;50.838;4.430;2023-03-03T00:07:59;31.73;;;17.60;;
23567;SDS011;11962;50.838;4.430;2023-03-03T00:10:25;32.33;;;18.73;;
23567;SDS011;11962;50.838;4.430;2023-03-03T00:12:51;31.35;;;17.20;;
23567;SDS011;11962;50.838;4.430;2023-03-03T00:15:22;34.22;;;18.15;;
23567;SDS011;11962;50.838;4.430;2023-03-03T00:17:49;32.17;;;18.35;;
23567;SDS011;11962;50.838;4.430;2023-03-03T00:22:51;42.95;;;20.65;;
23567;SDS011;11962;50.838;4.430;2023-03-03T00:25:30;37.60;;;20.08;;
23567;SDS011;11962;50.838;4.430;2023-03-03T00:28:05;34.10;;;18.05;;
23567;SDS011;11962;50.838;4.430;2023-03-03T00:30:39;34.22;;;18.08;;
23567;SDS011;11962;50.838;4.430;2023-03-03T00:33:11;32.15;;;18.60;;
23567;SDS011;11962;50.838;4.430;2023-03-03T00:35:54;36.22;;;18.58;;
23567;SDS011;11962;50.838;4.430;2023-03-03T00:38:21;37.97;;;18.17;;
23567;SDS011;11962;50.838;4.430;2023-03-03T00:40:48;34.95;;;18.48;;
23567;SDS011;11962;50.838;4.430;2023-03-03T00:43:21;31.60;;;17.88;;
23567;SDS011;11962;50.838;4.430;2023-03-03T00:51:12;31.60;;;17.95;;
23567;SDS011;11962;50.838;4.430;2023-03-03T00:53:54;35.50;;;19.13;;
23567;SDS011;11962;50.838;4.430;2023-03-03T00:56:21;32.88;;;18.23;;
23567;SDS011;11962;50.838;4.430;2023-03-03T00:58:47;32.72;;;17.98;;
23567;SDS011;11962;50.838;4.430;2023-03-03T01:01:13;32.15;;;17.90;;
23567;SDS011;11962;50.838;4.430;2023-03-03T01:03:40;35.92;;;19.38;;
23567;SDS011;11962;50.838;4.430;2023-03-03T01:06:05;32.92;;;18.45;;
23567;SDS011;11962;50.838;4.430;2023-03-03T01:08:31;31.50;;;17.60;;
23567;SDS011;11962;50.838;4.430;2023-03-03T01:10:59;36.22;;;18.20;;
23567;SDS011;11962;50.838;4.430;2023-03-03T01:13:29;35.90;;;17.95;;
23567;SDS011;11962;50.838;4.430;2023-03-03T01:15:57;36.50;;;19.40;;
23567;SDS011;11962;50.838;4.430;2023-03-03T01:18:23;32.90;;;17.60;;
23567;SDS011;11962;50.838;4.430;2023-03-03T01:20:49;37.38;;;19.08;;
23567;SDS011;11962;50.838;4.430;2023-03-03T01:23:15;35.92;;;18.63;;
23567;SDS011;11962;50.838;4.430;2023-03-03T01:25:41;34.17;;;18.67;;
23567;SDS011;11962;50.838;4.430;2023-03-03T01:28:06;32.70;;;18.60;;
23567;SDS011;11962;50.838;4.430;2023-03-03T01:30:36;35.47;;;18.67;;
23567;SDS011;11962;50.838;4.430;2023-03-03T01:33:02;35.47;;;18.45;;
23567;SDS011;11962;50.838;4.430;2023-03-03T01:35:28;35.17;;;18.48;;
23567;SDS011;11962;50.838;4.430;2023-03-03T01:37:54;33.45;;;18.13;;
23567;SDS011;11962;50.838;4.430;2023-03-03T01:40:22;30.95;;;17.08;;
23567;SDS011;11962;50.838;4.430;2023-03-03T01:42:50;36.10;;;18.35;;
23567;SDS011;11962;50.838;4.430;2023-03-03T01:45:24;34.88;;;18.20;;
23567;SDS011;11962;50.838;4.430;2023-03-03T01:48:04;37.13;;;19.00;;
23567;SDS011;11962;50.838;4.430;2023-03-03T01:50:43;36.67;;;18.90;;
23567;SDS011;11962;50.838;4.430;2023-03-03T01:53:32;34.78;;;18.08;;
23567;SDS011;11962;50.838;4.430;2023-03-03T01:56:02;35.25;;;18.52;;
23567;SDS011;11962;50.838;4.430;2023-03-03T01:58:35;37.42;;;18.58;;
23567;SDS011;11962;50.838;4.430;2023-03-03T02:01:06;36.45;;;19.98;;
23567;SDS011;11962;50.838;4.430;2023-03-03T02:03:35;35.85;;;18.83;;
23567;SDS011;11962;50.838;4.430;2023-03-03T02:06:06;36.10;;;19.75;;
23567;SDS011;11962;50.838;4.430;2023-03-03T02:11:23;39.33;;;19.08;;
23567;SDS011;11962;50.838;4.430;2023-03-03T02:13:50;39.33;;;20.42;;
23567;SDS011;11962;50.838;4.430;2023-03-03T02:16:17;35.97;;;20.23;;
23567;SDS011;11962;50.838;4.430;2023-03-03T02:18:43;39.03;;;19.63;;
23567;SDS011;11962;50.838;4.430;2023-03-03T02:21:09;37.15;;;19.70;;
23567;SDS011;11962;50.838;4.430;2023-03-03T02:26:14;38.28;;;19.73;;
23567;SDS011;11962;50.838;4.430;2023-03-03T02:28:47;37.63;;;20.05;;
23567;SDS011;11962;50.838;4.430;2023-03-03T02:31:14;43.53;;;21.55;;
23567;SDS011;11962;50.838;4.430;2023-03-03T02:33:42;45.05;;;21.70;;
23567;SDS011;11962;50.838;4.430;2023-03-03T02:36:14;39.50;;;20.85;;
23567;SDS011;11962;50.838;4.430;2023-03-03T02:41:42;46.30;;;22.13;;
23567;SDS011;11962;50.838;4.430;2023-03-03T02:44:16;49.42;;;23.63;;
23567;SDS011;11962;50.838;4.430;2023-03-03T02:46:47;51.88;;;23.70;;
23567;SDS011;11962;50.838;4.430;2023-03-03T02:49:16;48.13;;;24.05;;
23567;SDS011;11962;50.838;4.430;2023-03-03T02:51:45;46.47;;;23.48;;
23567;SDS011;11962;50.838;4.430;2023-03-03T02:54:11;53.05;;;24.75;;
23567;SDS011;11962;50.838;4.430;2023-03-03T02:56:38;48.70;;;23.80;;
23567;SDS011;11962;50.838;4.430;2023-03-03T02:59:05;44.80;;;22.90;;
23567;SDS011;11962;50.838;4.430;2023-03-03T03:01:31;46.55;;;23.85;;
23567;SDS011;11962;50.838;4.430;2023-03-03T03:04:10;50.53;;;24.67;;
23567;SDS011;11962;50.838;4.430;2023-03-03T03:06:38;46.47;;;25.13;;
23567;SDS011;11962;50.838;4.430;2023-03-03T03:09:05;50.15;;;24.52;;
23567;SDS011;11962;50.838;4.430;2023-03-03T03:11:32;51.50;;;24.45;;
23567;SDS011;11962;50.838;4.430;2023-03-03T03:13:59;56.17;;;25.38;;
23567;SDS011;11962;50.838;4.430;2023-03-03T03:16:26;52.08;;;25.13;;
23567;SDS011;11962;50.838;4.430;2023-03-03T03:18:51;48.92;;;24.75;;
23567;SDS011;11962;50.838;4.430;2023-03-03T03:21:17;52.20;;;26.10;;
23567;SDS011;11962;50.838;4.430;2023-03-03T03:23:43;51.40;;;24.52;;
23567;SDS011;11962;50.838;4.430;2023-03-03T03:26:09;58.05;;;26.15;;
23567;SDS011;11962;50.838;4.430;2023-03-03T03:28:35;48.88;;;24.40;;
23567;SDS011;11962;50.838;4.430;2023-03-03T03:31:02;53.28;;;25.58;;
23567;SDS011;11962;50.838;4.430;2023-03-03T03:33:29;52.15;;;25.35;;
23567;SDS011;11962;50.838;4.430;2023-03-03T03:35:56;49.45;;;24.60;;
23567;SDS011;11962;50.838;4.430;2023-03-03T03:38:23;46.58;;;24.13;;
23567;SDS011;11962;50.838;4.430;2023-03-03T03:40:49;57.60;;;26.48;;
23567;SDS011;11962;50.838;4.430;2023-03-03T03:43:15;46.20;;;23.55;;
23567;SDS011;11962;50.838;4.430;2023-03-03T03:45:47;49.38;;;23.23;;
23567;SDS011;11962;50.838;4.430;2023-03-03T03:48:13;49.95;;;23.60;;
23567;SDS011;11962;50.838;4.430;2023-03-03T03:50:39;44.75;;;22.67;;
23567;SDS011;11962;50.838;4.430;2023-03-03T03:53:05;46.53;;;23.45;;
23567;SDS011;11962;50.838;4.430;2023-03-03T03:55:31;50.70;;;24.23;;
23567;SDS011;11962;50.838;4.430;2023-03-03T03:57:57;50.65;;;24.25;;
23567;SDS011;11962;50.838;4.430;2023-03-03T04:00:23;48.83;;;24.50;;
23567;SDS011;11962;50.838;4.430;2023-03-03T04:02:49;50.50;;;24.17;;
23567;SDS011;11962;50.838;4.430;2023-03-03T04:05:15;51.53;;;25.00;;
23567;SDS011;11962;50.838;4.430;2023-03-03T04:07:41;53.67;;;25.23;;
23567;SDS011;11962;50.838;4.430;2023-03-03T04:10:07;48.72;;;23.88;;
23567;SDS011;11962;50.838;4.430;2023-03-03T04:12:34;50.83;;;24.83;;
23567;SDS011;11962;50.838;4.430;2023-03-03T04:15:06;54.55;;;25.60;;
23567;SDS011;11962;50.838;4.430;2023-03-03T04:17:33;52.28;;;24.85;;
23567;SDS011;11962;50.838;4.430;2023-03-03T04:19:59;51.95;;;25.40;;
23567;SDS011;11962;50.838;4.430;2023-03-03T04:22:25;52.97;;;25.35;;
23567;SDS011;11962;50.838;4.430;2023-03-03T04:24:50;49.35;;;24.52;;
23567;SDS011;11962;50.838;4.430;2023-03-03T04:27:16;48.40;;;24.83;;
23567;SDS011;11962;50.838;4.430;2023-03-03T04:29:42;50.88;;;24.25;;
23567;SDS011;11962;50.838;4.430;2023-03-03T04:32:08;53.10;;;24.83;;
23567;SDS011;11962;50.838;4.430;2023-03-03T04:34:34;45.50;;;23.35;;
23567;SDS011;11962;50.838;4.430;2023-03-03T04:36:59;47.65;;;24.00;;
23567;SDS011;11962;50.838;4.430;2023-03-03T04:39:26;50.05;;;25.00;;
23567;SDS011;11962;50.838;4.430;2023-03-03T04:41:53;49.72;;;24.40;;
23567;SDS011;11962;50.838;4.430;2023-03-03T04:44:18;52.72;;;25.77;;
23567;SDS011;11962;50.838;4.430;2023-03-03T04:49:30;50.88;;;24.83;;
23567;SDS011;11962;50.838;4.430;2023-03-03T04:51:56;48.33;;;24.52;;
23567;SDS011;11962;50.838;4.430;2023-03-03T04:54:22;48.13;;;22.75;;
23567;SDS011;11962;50.838;4.430;2023-03-03T04:56:48;46.53;;;23.40;;
23567;SDS011;11962;50.838;4.430;2023-03-03T04:59:14;50.03;;;22.65;;
23567;SDS011;11962;50.838;4.430;2023-03-03T05:01:40;47.92;;;22.67;;
23567;SDS011;11962;50.838;4.430;2023-03-03T05:04:06;47.22;;;22.65;;
23567;SDS011;11962;50.838;4.430;2023-03-03T05:06:32;48.20;;;23.83;;
23567;SDS011;11962;50.838;4.430;2023-03-03T05:08:57;52.55;;;25.35;;
23567;SDS011;11962;50.838;4.430;2023-03-03T05:11:23;48.22;;;22.52;;
23567;SDS011;11962;50.838;4.430;2023-03-03T05:13:49;48.42;;;22.92;;
23567;SDS011;11962;50.838;4.430;2023-03-03T05:16:15;49.47;;;23.75;;
23567;SDS011;11962;50.838;4.430;2023-03-03T05:21:34;50.10;;;24.15;;
23567;SDS011;11962;50.838;4.430;2023-03-03T05:24:00;47.97;;;22.92;;
23567;SDS011;11962;50.838;4.430;2023-03-03T05:26:26;45.65;;;22.60;;
23567;SDS011;11962;50.838;4.430;2023-03-03T05:28:51;43.88;;;21.58;;
23567;SDS011;11962;50.838;4.430;2023-03-03T05:31:17;42.20;;;21.08;;
23567;SDS011;11962;50.838;4.430;2023-03-03T05:33:55;42.05;;;20.38;;
23567;SDS011;11962;50.838;4.430;2023-03-03T05:36:21;45.92;;;22.52;;
23567;SDS011;11962;50.838;4.430;2023-03-03T05:38:47;44.10;;;21.52;;
23567;SDS011;11962;50.838;4.430;2023-03-03T05:41:12;40.92;;;21.75;;
23567;SDS011;11962;50.838;4.430;2023-03-03T05:43:38;39.97;;;20.95;;
23567;SDS011;11962;50.838;4.430;2023-03-03T05:46:04;40.30;;;20.27;;
23567;SDS011;11962;50.838;4.430;2023-03-03T05:48:30;36.28;;;19.92;;
23567;SDS011;11962;50.838;4.430;2023-03-03T05:50:59;40.33;;;20.00;;
23567;SDS011;11962;50.838;4.430;2023-03-03T05:53:28;36.13;;;19.85;;
23567;SDS011;11962;50.838;4.430;2023-03-03T05:55:54;35.60;;;19.25;;
23567;SDS011;11962;50.838;4.430;2023-03-03T05:58:20;37.28;;;20.30;;
23567;SDS011;11962;50.838;4.430;2023-03-03T06:00:46;38.42;;;19.98;;
23567;SDS011;11962;50.838;4.430;2023-03-03T06:03:12;40.55;;;20.65;;
23567;SDS011;11962;50.838;4.430;2023-03-03T06:05:38;40.40;;;19.35;;
23567;SDS011;11962;50.838;4.430;2023-03-03T06:08:04;36.28;;;19.85;;
23567;SDS011;11962;50.838;4.430;2023-03-03T06:10:29;37.83;;;20.15;;
23567;SDS011;11962;50.838;4.430;2023-03-03T06:12:55;38.22;;;19.60;;
23567;SDS011;11962;50.838;4.430;2023-03-03T06:15:22;38.65;;;20.77;;
23567;SDS011;11962;50.838;4.430;2023-03-03T06:17:58;36.25;;;19.25;;
23567;SDS011;11962;50.838;4.430;2023-03-03T06:20:23;38.95;;;19.45;;
23567;SDS011;11962;50.838;4.430;2023-03-03T06:22:49;35.13;;;19.20;;
23567;SDS011;11962;50.838;4.430;2023-03-03T06:25:15;35.60;;;19.23;;
23567;SDS011;11962;50.838;4.430;2023-03-03T06:27:41;36.78;;;19.35;;
23567;SDS011;11962;50.838;4.430;2023-03-03T06:30:07;35.60;;;19.05;;
23567;SDS011;11962;50.838;4.430;2023-03-03T06:32:48;38.25;;;19.73;;
23567;SDS011;11962;50.838;4.430;2023-03-03T06:35:14;39.13;;;19.98;;
23567;SDS011;11962;50.838;4.430;2023-03-03T06:37:40;37.08;;;20.02;;
23567;SDS011;11962;50.838;4.430;2023-03-03T06:40:05;39.35;;;20.02;;
23567;SDS011;11962;50.838;4.430;2023-03-03T06:42:32;38.17;;;18.80;;
23567;SDS011;11962;50.838;4.430;2023-03-03T06:44:57;37.45;;;18.90;;
23567;SDS011;11962;50.838;4.430;2023-03-03T06:47:23;41.67;;;20.55;;
23567;SDS011;11962;50.838;4.430;2023-03-03T06:49:49;35.03;;;18.67;;
23567;SDS011;11962;50.838;4.430;2023-03-03T06:52:19;39.00;;;20.48;;
23567;SDS011;11962;50.838;4.430;2023-03-03T06:54:47;36.25;;;18.95;;
23567;SDS011;11962;50.838;4.430;2023-03-03T06:57:19;37.10;;;19.65;;
23567;SDS011;11962;50.838;4.430;2023-03-03T06:59:53;38.83;;;19.98;;
23567;SDS011;11962;50.838;4.430;2023-03-03T07:02:21;34.60;;;18.70;;
23567;SDS011;11962;50.838;4.430;2023-03-03T07:04:47;38.63;;;20.60;;
23567;SDS011;11962;50.838;4.430;2023-03-03T07:07:21;36.05;;;19.63;;
23567;SDS011;11962;50.838;4.430;2023-03-03T07:09:49;45.25;;;20.98;;
23567;SDS011;11962;50.838;4.430;2023-03-03T07:12:18;39.60;;;19.85;;
23567;SDS011;11962;50.838;4.430;2023-03-03T07:15:35;40.67;;;21.42;;
23567;SDS011;11962;50.838;4.430;2023-03-03T07:20:23;38.22;;;18.52;;
23567;SDS011;11962;50.838;4.430;2023-03-03T07:25:32;37.10;;;17.55;;
23567;SDS011;11962;50.838;4.430;2023-03-03T07:30:46;38.80;;;19.42;;
23567;SDS011;11962;50.838;4.430;2023-03-03T07:36:23;42.63;;;19.85;;
23567;SDS011;11962;50.838;4.430;2023-03-03T07:39:02;43.00;;;20.40;;
23567;SDS011;11962;50.838;4.430;2023-03-03T07:41:39;38.97;;;19.33;;
23567;SDS011;11962;50.838;4.430;2023-03-03T07:44:18;40.63;;;19.95;;
23567;SDS011;11962;50.838;4.430;2023-03-03T07:46:48;39.45;;;20.52;;
23567;SDS011;11962;50.838;4.430;2023-03-03T07:49:36;41.13;;;19.80;;
23567;SDS011;11962;50.838;4.430;2023-03-03T07:52:02;40.55;;;19.48;;
23567;SDS011;11962;50.838;4.430;2023-03-03T07:57:51;41.45;;;20.13;;
23567;SDS011;11962;50.838;4.430;2023-03-03T08:10:55;40.17;;;19.08;;
23567;SDS011;11962;50.838;4.430;2023-03-03T08:13:23;38.03;;;19.83;;
23567;SDS011;11962;50.838;4.430;2023-03-03T08:18:35;39.22;;;19.77;;
23567;SDS011;11962;50.838;4.430;2023-03-03T08:21:22;42.88;;;20.50;;
23567;SDS011;11962;50.838;4.430;2023-03-03T08:23:49;41.10;;;19.83;;
23567;SDS011;11962;50.838;4.430;2023-03-03T08:26:17;35.30;;;18.58;;
23567;SDS011;11962;50.838;4.430;2023-03-03T08:28:44;37.22;;;19.83;;
23567;SDS011;11962;50.838;4.430;2023-03-03T08:31:10;37.70;;;19.10;;
23567;SDS011;11962;50.838;4.430;2023-03-03T08:33:36;35.60;;;17.85;;
23567;SDS011;11962;50.838;4.430;2023-03-03T08:36:03;35.25;;;18.00;;
23567;SDS011;11962;50.838;4.430;2023-03-03T08:38:30;34.67;;;18.10;;
23567;SDS011;11962;50.838;4.430;2023-03-03T08:40:55;34.58;;;18.40;;
23567;SDS011;11962;50.838;4.430;2023-03-03T08:43:21;35.13;;;18.58;;
23567;SDS011;11962;50.838;4.430;2023-03-03T08:45:49;37.53;;;18.52;;
23567;SDS011;11962;50.838;4.430;2023-03-03T08:48:20;31.27;;;16.65;;
23567;SDS011;11962;50.838;4.430;2023-03-03T08:50:46;36.35;;;18.77;;
23567;SDS011;11962;50.838;4.430;2023-03-03T08:53:12;38.53;;;18.00;;
23567;SDS011;11962;50.838;4.430;2023-03-03T08:55:38;34.10;;;18.00;;
23567;SDS011;11962;50.838;4.430;2023-03-03T08:58:05;35.22;;;18.73;;
23567;SDS011;11962;50.838;4.430;2023-03-03T09:00:31;33.83;;;16.13;;
23567;SDS011;11962;50.838;4.430;2023-03-03T09:02:56;32.78;;;16.77;;
23567;SDS011;11962;50.838;4.430;2023-03-03T09:05:23;32.05;;;16.27;;
23567;SDS011;11962;50.838;4.430;2023-03-03T09:07:49;33.00;;;15.45;;
23567;SDS011;11962;50.838;4.430;2023-03-03T09:10:25;29.63;;;15.43;;
23567;SDS011;11962;50.838;4.430;2023-03-03T09:12:53;30.23;;;15.98;;
23567;SDS011;11962;50.838;4.430;2023-03-03T09:15:29;28.73;;;15.95;;
23567;SDS011;11962;50.838;4.430;2023-03-03T09:18:12;33.75;;;16.48;;
23567;SDS011;11962;50.838;4.430;2023-03-03T09:20:53;35.40;;;17.27;;
23567;SDS011;11962;50.838;4.430;2023-03-03T09:23:37;30.90;;;16.10;;
23567;SDS011;11962;50.838;4.430;2023-03-03T09:31:43;32.33;;;15.52;;
23567;SDS011;11962;50.838;4.430;2023-03-03T09:39:51;31.33;;;15.27;;
23567;SDS011;11962;50.838;4.430;2023-03-03T09:42:24;29.67;;;16.00;;
23567;SDS011;11962;50.838;4.430;2023-03-03T09:45:10;29.83;;;16.00;;
23567;SDS011;11962;50.838;4.430;2023-03-03T09:48:20;29.85;;;15.75;;
23567;SDS011;11962;50.838;4.430;2023-03-03T09:56:32;30.77;;;15.02;;
23567;SDS011;11962;50.838;4.430;2023-03-03T10:01:49;32.15;;;15.52;;
23567;SDS011;11962;50.838;4.430;2023-03-03T10:04:22;31.00;;;15.25;;
23567;SDS011;11962;50.838;4.430;2023-03-03T10:07:27;30.20;;;14.48;;
23567;SDS011;11962;50.838;4.430;2023-03-03T10:10:05;28.55;;;15.00;;
23567;SDS011;11962;50.838;4.430;2023-03-03T10:12:50;34.03;;;15.35;;
23567;SDS011;11962;50.838;4.430;2023-03-03T10:15:20;30.13;;;15.95;;
23567;SDS011;11962;50.838;4.430;2023-03-03T10:21:15;32.67;;;14.90;;
23567;SDS011;11962;50.838;4.430;2023-03-03T10:31:44;31.60;;;15.43;;
23567;SDS011;11962;50.838;4.430;2023-03-03T10:40:16;32.17;;;15.50;;
23567;SDS011;11962;50.838;4.430;2023-03-03T10:43:02;37.97;;;15.88;;
23567;SDS011;11962;50.838;4.430;2023-03-03T10:45:56;29.67;;;15.30;;
23567;SDS011;11962;50.838;4.430;2023-03-03T10:49:01;36.38;;;15.85;;
23567;SDS011;11962;50.838;4.430;2023-03-03T10:51:40;34.35;;;16.15;;
23567;SDS011;11962;50.838;4.430;2023-03-03T10:59:44;32.72;;;16.15;;
23567;SDS011;11962;50.838;4.430;2023-03-03T11:05:05;33.88;;;16.40;;
23567;SDS011;11962;50.838;4.430;2023-03-03T11:10:36;27.60;;;14.45;;
23567;SDS011;11962;50.838;4.430;2023-03-03T11:26:45;29.05;;;14.93;;
23567;SDS011;11962;50.838;4.430;2023-03-03T11:29:42;29.10;;;14.45;;
23567;SDS011;11962;50.838;4.430;2023-03-03T11:32:24;32.67;;;16.63;;
23567;SDS011;11962;50.838;4.430;2023-03-03T11:35:07;28.30;;;14.85;;
23567;SDS011;11962;50.838;4.430;2023-03-03T11:38:05;32.63;;;15.55;;
23567;SDS011;11962;50.838;4.430;2023-03-03T11:40:55;29.80;;;15.20;;
23567;SDS011;11962;50.838;4.430;2023-03-03T11:46:14;30.20;;;15.23;;
23567;SDS011;11962;50.838;4.430;2023-03-03T11:56:38;31.33;;;15.38;;
23567;SDS011;11962;50.838;4.430;2023-03-03T12:01:53;29.58;;;14.57;;
23567;SDS011;11962;50.838;4.430;2023-03-03T12:04:24;26.90;;;14.43;;
23567;SDS011;11962;50.838;4.430;2023-03-03T12:07:01;29.02;;;14.13;;
23567;SDS011;11962;50.838;4.430;2023-03-03T12:12:18;30.33;;;15.73;;
23567;SDS011;11962;50.838;4.430;2023-03-03T12:23:18;28.75;;;15.50;;
23567;SDS011;11962;50.838;4.430;2023-03-03T12:28:34;29.80;;;14.87;;
23567;SDS011;11962;50.838;4.430;2023-03-03T12:39:07;26.75;;;14.90;;
23567;SDS011;11962;50.838;4.430;2023-03-03T12:41:49;25.98;;;14.27;;
23567;SDS011;11962;50.838;4.430;2023-03-03T12:44:37;27.95;;;14.90;;
23567;SDS011;11962;50.838;4.430;2023-03-03T12:50:13;27.83;;;14.25;;
23567;SDS011;11962;50.838;4.430;2023-03-03T12:52:52;32.10;;;15.15;;
23567;SDS011;11962;50.838;4.430;2023-03-03T12:55:29;29.48;;;14.90;;
23567;SDS011;11962;50.838;4.430;2023-03-03T13:03:48;23.52;;;13.60;;
23567;SDS011;11962;50.838;4.430;2023-03-03T13:06:33;30.15;;;15.25;;
23567;SDS011;11962;50.838;4.430;2023-03-03T13:09:31;30.80;;;15.65;;
23567;SDS011;11962;50.838;4.430;2023-03-03T13:23:11;28.17;;;13.90;;
23567;SDS011;11962;50.838;4.430;2023-03-03T13:28:21;25.35;;;13.57;;
23567;SDS011;11962;50.838;4.430;2023-03-03T13:31:19;28.50;;;14.07;;
23567;SDS011;11962;50.838;4.430;2023-03-03T13:33:56;27.40;;;13.93;;
23567;SDS011;11962;50.838;4.430;2023-03-03T13:36:36;23.05;;;13.13;;
23567;SDS011;11962;50.838;4.430;2023-03-03T13:39:17;25.70;;;13.88;;
23567;SDS011;11962;50.838;4.430;2023-03-03T13:42:02;24.38;;;13.38;;
23567;SDS011;11962;50.838;4.430;2023-03-03T13:44:48;24.95;;;13.23;;
23567;SDS011;11962;50.838;4.430;2023-03-03T14:04:00;26.25;;;13.00;;
23567;SDS011;11962;50.838;4.430;2023-03-03T14:06:46;25.40;;;13.38;;
23567;SDS011;11962;50.838;4.430;2023-03-03T14:20:38;22.58;;;11.80;;
23567;SDS011;11962;50.838;4.430;2023-03-03T14:23:15;25.08;;;13.00;;
23567;SDS011;11962;50.838;4.430;2023-03-03T14:28:44;24.20;;;13.27;;
23567;SDS011;11962;50.838;4.430;2023-03-03T14:36:57;25.08;;;12.82;;
23567;SDS011;11962;50.838;4.430;2023-03-03T14:43:31;23.52;;;11.32;;
23567;SDS011;11962;50.838;4.430;2023-03-03T14:48:59;21.08;;;10.73;;
23567;SDS011;11962;50.838;4.430;2023-03-03T14:54:33;22.00;;;11.30;;
23567;SDS011;11962;50.838;4.430;2023-03-03T14:57:11;19.90;;;10.77;;
23567;SDS011;11962;50.838;4.430;2023-03-03T14:59:59;18.75;;;9.73;;
23567;SDS011;11962;50.838;4.430;2023-03-03T15:02:41;20.48;;;11.20;;
23567;SDS011;11962;50.838;4.430;2023-03-03T15:05:38;19.33;;;10.48;;
23567;SDS011;11962;50.838;4.430;2023-03-03T15:08:26;22.88;;;10.60;;
23567;SDS011;11962;50.838;4.430;2023-03-03T15:14:00;18.95;;;10.18;;
23567;SDS011;11962;50.838;4.430;2023-03-03T15:20:02;18.42;;;9.50;;
23567;SDS011;11962;50.838;4.430;2023-03-03T15:28:21;18.30;;;9.98;;
23567;SDS011;11962;50.838;4.430;2023-03-03T15:37:06;15.30;;;9.02;;
23567;SDS011;11962;50.838;4.430;2023-03-03T15:40:08;21.60;;;9.68;;
23567;SDS011;11962;50.838;4.430;2023-03-03T15:54:38;15.18;;;8.75;;
23567;SDS011;11962;50.838;4.430;2023-03-03T16:03:30;16.30;;;8.93;;
23567;SDS011;11962;50.838;4.430;2023-03-03T16:27:39;14.52;;;7.93;;
23567;SDS011;11962;50.838;4.430;2023-03-03T16:33:18;11.87;;;7.60;;
23567;SDS011;11962;50.838;4.430;2023-03-03T16:45:29;12.45;;;7.40;;
23567;SDS011;11962;50.838;4.430;2023-03-03T17:39:12;19.45;;;8.20;;
23567;SDS011;11962;50.838;4.430;2023-03-03T18:05:52;15.80;;;9.23;;
23567;SDS011;11962;50.838;4.430;2023-03-03T18:11:44;14.27;;;7.70;;
23567;SDS011;11962;50.838;4.430;2023-03-03T18:20:07;16.15;;;7.93;;
23567;SDS011;11962;50.838;4.430;2023-03-03T18:22:52;11.77;;;7.38;;
23567;SDS011;11962;50.838;4.430;2023-03-03T18:25:22;15.00;;;7.70;;
23567;SDS011;11962;50.838;4.430;2023-03-03T18:30:31;17.02;;;11.18;;
23567;SDS011;11962;50.838;4.430;2023-03-03T18:39:03;17.33;;;9.55;;
23567;SDS011;11962;50.838;4.430;2023-03-03T18:44:55;26.15;;;9.93;;
23567;SDS011;11962;50.838;4.430;2023-03-03T18:53:30;19.85;;;13.27;;
23567;SDS011;11962;50.838;4.430;2023-03-03T18:56:02;23.30;;;12.95;;
23567;SDS011;11962;50.838;4.430;2023-03-03T18:58:41;23.55;;;12.95;;
23567;SDS011;11962;50.838;4.430;2023-03-03T19:16:02;15.13;;;8.52;;
23567;SDS011;11962;50.838;4.430;2023-03-03T19:29:53;13.32;;;7.05;;
23567;SDS011;11962;50.838;4.430;2023-03-03T19:41:44;14.05;;;6.97;;
23567;SDS011;11962;50.838;4.430;2023-03-03T19:48:03;11.82;;;5.90;;
23567;SDS011;11962;50.838;4.430;2023-03-03T19:50:57;16.45;;;6.97;;
23567;SDS011;11962;50.838;4.430;2023-03-03T20:08:07;10.38;;;5.70;;
23567;SDS011;11962;50.838;4.430;2023-03-03T20:11:01;11.27;;;5.53;;
23567;SDS011;11962;50.838;4.430;2023-03-03T20:16:53;9.43;;;5.95;;
23567;SDS011;11962;50.838;4.430;2023-03-03T20:25:35;12.68;;;6.03;;
23567;SDS011;11962;50.838;4.430;2023-03-03T20:42:42;9.93;;;7.20;;
23567;SDS011;11962;50.838;4.430;2023-03-03T20:45:43;14.90;;;9.07;;
23567;SDS011;11962;50.838;4.430;2023-03-03T20:51:29;10.15;;;7.03;;
23567;SDS011;11962;50.838;4.430;2023-03-03T20:54:29;12.48;;;7.38;;
23567;SDS011;11962;50.838;4.430;2023-03-03T21:00:03;9.10;;;7.32;;
23567;SDS011;11962;50.838;4.430;2023-03-03T21:05:55;9.95;;;7.70;;
23567;SDS011;11962;50.838;4.430;2023-03-03T21:14:26;9.38;;;7.47;;
23567;SDS011;11962;50.838;4.430;2023-03-03T21:25:45;12.35;;;8.18;;
23567;SDS011;11962;50.838;4.430;2023-03-03T21:28:20;10.80;;;8.98;;
23567;SDS011;11962;50.838;4.430;2023-03-03T21:31:13;10.55;;;9.35;;
23567;SDS011;11962;50.838;4.430;2023-03-03T21:34:00;11.40;;;8.55;;
23567;SDS011;11962;50.838;4.430;2023-03-03T21:39:00;12.25;;;9.88;;
23567;SDS011;11962;50.838;4.430;2023-03-03T21:42:04;11.73;;;9.43;;
23567;SDS011;11962;50.838;4.430;2023-03-03T21:44:51;13.68;;;9.68;;
23567;SDS011;11962;50.838;4.430;2023-03-03T21:47:26;14.27;;;9.85;;
23567;SDS011;11962;50.838;4.430;2023-03-03T21:49:53;10.40;;;9.38;;
23567;SDS011;11962;50.838;4.430;2023-03-03T21:52:27;13.73;;;10.10;;
23567;SDS011;11962;50.838;4.430;2023-03-03T21:55:02;13.35;;;9.80;;
23567;SDS011;11962;50.838;4.430;2023-03-03T21:57:28;14.52;;;10.73;;
23567;SDS011;11962;50.838;4.430;2023-03-03T22:03:00;14.25;;;11.00;;
23567;SDS011;11962;50.838;4.430;2023-03-03T22:05:32;15.60;;;11.23;;
23567;SDS011;11962;50.838;4.430;2023-03-03T22:08:02;14.77;;;11.65;;
23567;SDS011;11962;50.838;4.430;2023-03-03T22:10:58;15.68;;;12.40;;
23567;SDS011;11962;50.838;4.430;2023-03-03T22:13:24;17.70;;;12.55;;
23567;SDS011;11962;50.838;4.430;2023-03-03T22:16:29;16.98;;;12.70;;
23567;SDS011;11962;50.838;4.430;2023-03-03T22:18:55;22.05;;;13.32;;
23567;SDS011;11962;50.838;4.430;2023-03-03T22:21:21;15.27;;;12.77;;
23567;SDS011;11962;50.838;4.430;2023-03-03T22:23:50;17.50;;;13.43;;
23567;SDS011;11962;50.838;4.430;2023-03-03T22:26:20;17.33;;;12.52;;
23567;SDS011;11962;50.838;4.430;2023-03-03T22:28:56;17.02;;;13.45;;
23567;SDS011;11962;50.838;4.430;2023-03-03T22:31:48;16.23;;;13.15;;
23567;SDS011;11962;50.838;4.430;2023-03-03T22:34:20;18.00;;;13.70;;
23567;SDS011;11962;50.838;4.430;2023-03-03T22:36:50;17.77;;;12.55;;
23567;SDS011;11962;50.838;4.430;2023-03-03T22:39:25;21.17;;;13.55;;
23567;SDS011;11962;50.838;4.430;2023-03-03T22:41:51;15.73;;;12.48;;
23567;SDS011;11962;50.838;4.430;2023-03-03T22:47:05;16.73;;;12.88;;
23567;SDS011;11962;50.838;4.430;2023-03-03T22:49:31;16.80;;;11.88;;
23567;SDS011;11962;50.838;4.430;2023-03-03T22:52:03;17.25;;;12.10;;
23567;SDS011;11962;50.838;4.430;2023-03-03T22:54:30;15.90;;;11.40;;
23567;SDS011;11962;50.838;4.430;2023-03-03T22:56:56;15.48;;;11.15;;
23567;SDS011;11962;50.838;4.430;2023-03-03T22:59:31;13.18;;;11.18;;
23567;SDS011;11962;50.838;4.430;2023-03-03T23:02:00;16.38;;;11.63;;
23567;SDS011;11962;50.838;4.430;2023-03-03T23:04:44;18.83;;;11.27;;
23567;SDS011;11962;50.838;4.430;2023-03-03T23:07:15;13.30;;;10.13;;
23567;SDS011;11962;50.838;4.430;2023-03-03T23:09:41;13.23;;;9.98;;
23567;SDS011;11962;50.838;4.430;2023-03-03T23:12:08;14.45;;;10.52;;